createdAt,value
2018-06-05T00:01:43.363Z,16.80
2018-06-05T00:04:12.196Z,16.50
2018-06-05T00:06:40.993Z,17.03
2018-06-05T00:09:09.992Z,17.80
2018-06-05T00:11:38.784Z,18.27
2018-06-05T00:14:07.570Z,17.63
2018-06-05T00:16:36.360Z,17.97
2018-06-05T00:19:05.176Z,18.57
2018-06-05T00:21:33.981Z,18.97
2018-06-05T00:24:02.764Z,18.93
2018-06-05T00:26:31.651Z,18.30
2018-06-05T00:29:00.450Z,19.00
2018-06-05T00:31:29.234Z,19.53
2018-06-05T00:33:57.956Z,19.37
2018-06-05T00:36:26.821Z,20.60
2018-06-05T00:38:55.578Z,19.33
2018-06-05T00:41:24.364Z,19.77
2018-06-05T00:43:53.160Z,19.57
2018-06-05T00:46:21.907Z,19.80
2018-06-05T00:48:50.747Z,20.60
2018-06-05T00:51:30.631Z,20.20
2018-06-05T00:53:59.383Z,20.27
2018-06-05T00:56:28.173Z,20.50
2018-06-05T00:58:56.921Z,21.03
2018-06-05T01:01:25.773Z,20.03
2018-06-05T01:03:55.311Z,20.57
2018-06-05T01:06:24.139Z,20.60
2018-06-05T01:08:52.960Z,19.67
2018-06-05T01:11:21.748Z,19.27
2018-06-05T01:13:50.516Z,22.03
2018-06-05T01:16:19.299Z,20.67
2018-06-05T01:18:48.103Z,20.03
2018-06-05T01:21:16.882Z,20.83
2018-06-05T01:23:45.590Z,21.70
2018-06-05T01:26:14.420Z,20.40
2018-06-05T01:28:43.252Z,22.03
2018-06-05T01:31:12.973Z,22.60
2018-06-05T01:33:41.759Z,23.10
2018-06-05T01:36:10.524Z,22.83
2018-06-05T01:38:39.239Z,23.03
2018-06-05T01:41:08.035Z,22.60
2018-06-05T01:43:36.831Z,21.97
2018-06-05T01:46:05.609Z,23.10
2018-06-05T01:48:34.397Z,23.03
2018-06-05T01:51:03.174Z,23.50
2018-06-05T01:53:31.942Z,22.77
2018-06-05T01:56:00.764Z,22.77
2018-06-05T01:58:29.496Z,22.53
2018-06-05T02:00:58.312Z,20.20
2018-06-05T02:03:27.092Z,21.20
2018-06-05T02:05:55.866Z,20.90
2018-06-05T02:08:24.224Z,20.90
2018-06-05T02:10:53.007Z,20.83
2018-06-05T02:13:21.815Z,20.00
2018-06-05T02:15:50.641Z,20.13
2018-06-05T02:18:20.220Z,18.47
2018-06-05T02:20:49.050Z,18.90
2018-06-05T02:23:17.852Z,18.17
2018-06-05T02:25:46.641Z,19.70
2018-06-05T02:28:15.475Z,19.70
2018-06-05T02:30:44.273Z,21.17
2018-06-05T02:33:13.075Z,20.60
2018-06-05T02:35:42.586Z,21.07
2018-06-05T02:38:11.438Z,21.43
2018-06-05T02:40:40.213Z,21.27
2018-06-05T02:43:09.026Z,21.93
2018-06-05T02:45:37.822Z,20.97
2018-06-05T02:48:06.662Z,21.43
2018-06-05T02:50:35.458Z,22.17
2018-06-05T02:53:04.212Z,22.33
2018-06-05T02:55:32.972Z,23.07
2018-06-05T02:58:01.787Z,23.63
2018-06-05T03:00:30.556Z,24.03
2018-06-05T03:02:59.361Z,22.77
2018-06-05T03:05:28.204Z,23.43
2018-06-05T03:07:56.993Z,22.40
2018-06-05T03:10:25.825Z,22.97
2018-06-05T03:12:54.617Z,24.03
2018-06-05T03:15:23.416Z,23.63
2018-06-05T03:17:52.212Z,23.70
2018-06-05T03:20:21.018Z,21.83
2018-06-05T03:22:49.874Z,23.13
2018-06-05T03:25:18.680Z,21.97
2018-06-05T03:27:48.194Z,21.33
2018-06-05T03:30:17.013Z,21.93
2018-06-05T03:32:45.848Z,21.80
2018-06-05T03:35:14.629Z,21.53
2018-06-05T03:37:43.402Z,21.50
2018-06-05T03:40:12.193Z,20.70
2018-06-05T03:42:41.003Z,20.87
2018-06-05T03:45:09.833Z,21.17
2018-06-05T03:47:38.613Z,20.70
2018-06-05T03:50:07.409Z,21.47
2018-06-05T03:52:36.198Z,21.47
2018-06-05T03:55:04.985Z,21.03
2018-06-05T03:57:33.818Z,22.07
2018-06-05T04:00:02.596Z,21.17
2018-06-05T04:02:31.412Z,20.83
2018-06-05T04:05:00.165Z,19.93
2018-06-05T04:07:28.576Z,21.23
2018-06-05T04:09:57.340Z,21.17
2018-06-05T04:12:26.127Z,20.80
2018-06-05T04:14:55.663Z,21.10
2018-06-05T04:17:24.443Z,21.03
2018-06-05T04:19:53.224Z,19.53
2018-06-05T04:22:22.055Z,20.27
2018-06-05T04:24:50.890Z,19.43
2018-06-05T04:27:19.713Z,19.77
2018-06-05T04:29:48.559Z,18.57
2018-06-05T04:32:17.296Z,19.13
2018-06-05T04:34:46.151Z,19.30
2018-06-05T04:37:14.918Z,18.00
2018-06-05T04:39:43.823Z,17.77
2018-06-05T04:42:12.593Z,17.53
2018-06-05T04:44:41.472Z,17.83
2018-06-05T04:47:10.242Z,19.13
2018-06-05T04:49:39.017Z,19.40
2018-06-05T04:52:07.810Z,18.17
2018-06-05T04:54:36.584Z,18.37
2018-06-05T04:57:05.457Z,18.03
2018-06-05T04:59:34.236Z,18.07
2018-06-05T05:02:03.001Z,17.57
2018-06-05T05:04:31.800Z,17.70
2018-06-05T05:07:00.220Z,18.10
2018-06-05T05:09:29.051Z,18.83
2018-06-05T05:11:57.833Z,18.37
2018-06-05T05:14:26.744Z,16.87
2018-06-05T05:16:55.547Z,17.00
2018-06-05T05:19:24.349Z,18.17
2018-06-05T05:21:52.741Z,17.60
2018-06-05T05:24:21.557Z,18.17
2018-06-05T05:26:50.385Z,17.90
2018-06-05T05:29:19.105Z,17.57
2018-06-05T05:31:48.573Z,17.73
2018-06-05T05:34:17.506Z,17.93
2018-06-05T05:36:46.326Z,17.63
2018-06-05T05:39:15.187Z,17.20
2018-06-05T05:41:43.982Z,18.07
2018-06-05T05:44:13.046Z,18.20
2018-06-05T05:46:41.836Z,18.53
2018-06-05T05:49:10.598Z,17.13
2018-06-05T05:51:39.371Z,18.87
2018-06-05T05:54:08.161Z,17.83
2018-06-05T05:56:36.921Z,18.30
2018-06-05T05:59:05.756Z,17.87
2018-06-05T06:01:34.525Z,17.30
2018-06-05T06:04:03.303Z,17.60
2018-06-05T06:06:32.070Z,17.70
2018-06-05T06:09:00.866Z,17.67
2018-06-05T06:11:29.676Z,17.13
2018-06-05T06:13:58.465Z,18.17
2018-06-05T06:16:27.266Z,16.60
2018-06-05T06:18:56.132Z,16.97
2018-06-05T06:21:24.954Z,16.27
2018-06-05T06:23:53.778Z,16.90
2018-06-05T06:26:22.639Z,15.80
2018-06-05T06:28:51.387Z,16.07
2018-06-05T06:31:20.205Z,15.97
2018-06-05T06:33:49.035Z,16.27
2018-06-05T06:36:17.841Z,16.70
2018-06-05T06:38:46.670Z,16.07
2018-06-05T06:41:15.869Z,15.87
2018-06-05T06:43:44.731Z,15.93
2018-06-05T06:46:13.604Z,15.67
2018-06-05T06:48:42.453Z,14.90
2018-06-05T06:51:11.342Z,14.43
2018-06-05T06:53:40.133Z,14.73
2018-06-05T06:56:08.967Z,15.17
2018-06-05T06:58:38.258Z,15.27
2018-06-05T07:01:07.110Z,15.70
2018-06-05T07:03:35.942Z,15.70
2018-06-05T07:06:05.501Z,15.50
2018-06-05T07:08:34.284Z,14.97
2018-06-05T07:11:02.657Z,15.67
2018-06-05T07:13:31.420Z,15.67
2018-06-05T07:16:00.259Z,15.87
2018-06-05T07:18:29.107Z,16.27
2018-06-05T07:20:57.977Z,16.90
2018-06-05T07:23:26.819Z,15.47
2018-06-05T07:25:55.624Z,16.13
2018-06-05T07:28:24.995Z,16.23
2018-06-05T07:30:53.818Z,15.53
2018-06-05T07:33:22.245Z,16.20
2018-06-05T07:35:51.166Z,17.30
2018-06-05T07:38:19.589Z,16.27
2018-06-05T07:40:48.454Z,15.33
2018-06-05T07:43:17.246Z,17.07
2018-06-05T07:45:46.150Z,17.27
2018-06-05T07:48:15.074Z,17.13
2018-06-05T07:50:43.882Z,16.77
2018-06-05T07:53:12.829Z,16.73
2018-06-05T07:55:41.671Z,16.60
2018-06-05T07:58:10.603Z,16.20
2018-06-05T08:00:39.391Z,16.97
2018-06-05T08:03:08.189Z,16.43
2018-06-05T08:05:36.983Z,16.10
2018-06-05T08:08:05.903Z,16.23
2018-06-05T08:10:34.753Z,16.47
2018-06-05T08:13:03.622Z,15.80
2018-06-05T08:15:32.444Z,16.40
2018-06-05T08:18:01.277Z,16.47
2018-06-05T08:20:30.138Z,16.60
2018-06-05T08:22:58.988Z,16.40
2018-06-05T08:25:27.874Z,15.47
2018-06-05T08:27:56.792Z,16.23
2018-06-05T08:30:25.644Z,15.63
2018-06-05T08:32:54.439Z,15.13
2018-06-05T08:35:24.352Z,15.67
2018-06-05T08:37:53.206Z,15.57
2018-06-05T08:40:22.015Z,16.60
2018-06-05T08:42:50.827Z,15.20
2018-06-05T08:45:19.703Z,15.80
2018-06-05T08:47:48.547Z,15.27
2018-06-05T08:50:17.440Z,16.43
2018-06-05T08:52:46.239Z,17.73
2018-06-05T08:55:15.017Z,15.00
2018-06-05T08:57:43.838Z,15.47
2018-06-05T09:00:12.716Z,15.97
2018-06-05T09:02:41.564Z,15.70
2018-06-05T09:05:10.429Z,15.60
2018-06-05T09:07:39.246Z,14.93
2018-06-05T09:10:08.152Z,14.57
2018-06-05T09:12:36.972Z,14.27
2018-06-05T09:15:05.856Z,13.77
2018-06-05T09:17:34.635Z,15.20
2018-06-05T09:20:03.469Z,13.70
2018-06-05T09:22:32.287Z,15.43
2018-06-05T09:25:01.159Z,13.90
2018-06-05T09:27:29.943Z,13.70
2018-06-05T09:29:58.756Z,13.53
2018-06-05T09:32:27.571Z,12.40
2018-06-05T09:34:56.479Z,11.57
2018-06-05T09:37:25.348Z,12.10
2018-06-05T09:39:54.233Z,11.47
2018-06-05T09:42:23.114Z,13.07
2018-06-05T09:44:51.953Z,11.87
2018-06-05T09:47:20.794Z,12.23
2018-06-05T09:49:49.663Z,12.97
2018-06-05T09:52:18.532Z,12.73
2018-06-05T09:54:47.386Z,12.93
2018-06-05T09:57:16.187Z,12.50
2018-06-05T09:59:45.105Z,12.80
2018-06-05T10:02:13.976Z,12.90
2018-06-05T10:04:42.712Z,13.40
2018-06-05T10:07:11.549Z,12.73
2018-06-05T10:09:40.419Z,12.70
2018-06-05T10:12:09.289Z,12.90
2018-06-05T10:14:38.069Z,13.37
2018-06-05T10:17:06.902Z,13.33
2018-06-05T10:19:35.679Z,13.83
2018-06-05T10:22:04.588Z,13.27
2018-06-05T10:24:33.401Z,13.93
2018-06-05T10:27:02.224Z,13.50
2018-06-05T10:29:31.090Z,14.77
2018-06-05T10:31:59.580Z,15.10
2018-06-05T10:34:28.357Z,15.67
2018-06-05T10:36:57.181Z,14.73
2018-06-05T10:39:26.050Z,15.27
2018-06-05T10:41:54.864Z,15.17
2018-06-05T10:44:24.366Z,15.90
2018-06-05T10:46:53.290Z,15.03
2018-06-05T10:49:22.114Z,14.43
2018-06-05T10:51:50.894Z,13.97
2018-06-05T10:54:19.703Z,14.57
2018-06-05T10:56:48.527Z,12.93
2018-06-05T10:59:17.315Z,13.63
2018-06-05T11:01:46.829Z,15.07
2018-06-05T11:04:15.769Z,14.27
2018-06-05T11:06:44.550Z,14.70
2018-06-05T11:09:13.398Z,16.07
2018-06-05T11:11:42.273Z,15.60
2018-06-05T11:14:11.126Z,16.53
2018-06-05T11:16:39.903Z,16.60
2018-06-05T11:19:08.716Z,17.17
2018-06-05T11:21:37.572Z,17.63
2018-06-05T11:24:06.909Z,16.43
2018-06-05T11:26:36.436Z,17.17
2018-06-05T11:29:05.600Z,16.83
2018-06-05T11:31:34.412Z,17.77
2018-06-05T11:34:03.263Z,16.90
2018-06-05T11:36:32.037Z,15.93
2018-06-05T11:39:01.251Z,17.13
2018-06-05T11:41:30.063Z,16.63
2018-06-05T11:43:58.839Z,17.10
2018-06-05T11:46:27.397Z,16.77
2018-06-05T11:48:56.222Z,15.83
2018-06-05T11:51:25.057Z,17.10
2018-06-05T11:53:53.867Z,15.97
2018-06-05T11:56:22.666Z,15.63
2018-06-05T11:58:51.494Z,15.73
2018-06-05T12:01:19.850Z,16.27
2018-06-05T12:03:48.660Z,15.93
2018-06-05T12:06:17.416Z,16.60
2018-06-05T12:08:46.266Z,16.30
2018-06-05T12:11:15.058Z,16.17
2018-06-05T12:13:44.650Z,17.27
2018-06-05T12:16:13.462Z,16.67
2018-06-05T12:18:42.300Z,17.13
2018-06-05T12:21:12.367Z,16.27
2018-06-05T12:23:40.896Z,16.20
2018-06-05T12:26:09.667Z,15.90
2018-06-05T12:28:39.517Z,15.63
2018-06-05T12:31:08.357Z,16.53
2018-06-05T12:33:36.738Z,16.20
2018-06-05T12:36:05.699Z,16.03
2018-06-05T12:38:34.483Z,16.37
2018-06-05T12:41:03.303Z,15.57
2018-06-05T12:43:32.134Z,16.10
2018-06-05T12:46:01.806Z,16.57
2018-06-05T12:48:30.602Z,16.93
2018-06-05T12:50:59.422Z,16.03
2018-06-05T12:53:28.227Z,16.20
2018-06-05T12:55:57.112Z,16.50
2018-06-05T12:58:26.434Z,16.47
2018-06-05T13:00:55.245Z,16.33
2018-06-05T13:03:25.112Z,16.60
2018-06-05T13:05:53.876Z,16.20
2018-06-05T13:08:22.910Z,16.30
2018-06-05T13:10:51.808Z,17.10
2018-06-05T13:13:20.730Z,16.30
2018-06-05T13:15:49.623Z,16.10
2018-06-05T13:18:18.343Z,16.77
2018-06-05T13:20:47.119Z,16.37
2018-06-05T13:23:15.924Z,16.27
2018-06-05T13:25:44.743Z,15.60
2018-06-05T13:28:13.533Z,15.27
2018-06-05T13:30:42.355Z,16.17
2018-06-05T13:33:11.254Z,15.63
2018-06-05T13:35:40.086Z,16.37
2018-06-05T13:38:08.879Z,15.53
2018-06-05T13:40:37.650Z,14.93
2018-06-05T13:43:06.421Z,14.87
2018-06-05T13:45:35.228Z,15.07
2018-06-05T13:48:04.034Z,14.97
2018-06-05T13:50:32.806Z,15.10
2018-06-05T13:53:01.675Z,14.50
2018-06-05T13:55:30.489Z,15.43
2018-06-05T13:57:59.359Z,13.80
2018-06-05T14:00:28.160Z,14.60
2018-06-05T14:02:56.963Z,15.13
2018-06-05T14:05:26.623Z,14.93
2018-06-05T14:07:55.515Z,14.90
2018-06-05T14:10:24.331Z,14.37
2018-06-05T14:12:53.225Z,14.30
2018-06-05T14:15:22.082Z,14.67
2018-06-05T14:17:50.947Z,14.97
2018-06-05T14:20:19.821Z,13.93
2018-06-05T14:22:48.671Z,15.17
2018-06-05T14:25:17.538Z,14.40
2018-06-05T14:27:46.411Z,14.67
2018-06-05T14:30:15.353Z,14.00
2018-06-05T14:32:44.196Z,15.07
2018-06-05T14:35:13.029Z,14.60
2018-06-05T14:37:41.854Z,15.10
2018-06-05T14:40:10.806Z,13.77
2018-06-05T14:42:39.663Z,14.97
2018-06-05T14:45:08.586Z,14.30
2018-06-05T14:47:38.430Z,14.93
2018-06-05T14:50:07.245Z,15.67
2018-06-05T14:52:36.107Z,15.70
2018-06-05T14:55:04.958Z,16.40
2018-06-05T14:57:33.801Z,14.73
2018-06-05T15:00:02.679Z,15.77
2018-06-05T15:02:31.584Z,15.30
2018-06-05T15:05:00.000Z,16.20
2018-06-05T15:07:28.806Z,16.47
2018-06-05T15:09:57.601Z,16.63
2018-06-05T15:12:26.479Z,15.33
2018-06-05T15:14:55.291Z,15.10
2018-06-05T15:17:24.101Z,14.03
2018-06-05T15:19:52.975Z,15.00
2018-06-05T15:22:21.841Z,14.80
2018-06-05T15:24:51.471Z,15.43
2018-06-05T15:27:20.374Z,14.83
2018-06-05T15:29:50.017Z,15.17
2018-06-05T15:32:18.898Z,15.27
2018-06-05T15:34:47.935Z,14.57
2018-06-05T15:37:16.820Z,14.90
2018-06-05T15:39:45.616Z,14.27
2018-06-05T15:42:14.460Z,14.37
2018-06-05T15:44:43.266Z,14.57
2018-06-05T15:47:12.114Z,13.90
2018-06-05T15:49:40.936Z,14.30
2018-06-05T15:52:09.765Z,13.73
2018-06-05T15:54:38.532Z,13.80
2018-06-05T15:57:07.291Z,14.03
2018-06-05T15:59:36.205Z,13.13
2018-06-05T16:02:05.049Z,12.40
2018-06-05T16:04:33.994Z,13.37
2018-06-05T16:07:02.790Z,13.13
2018-06-05T16:09:31.884Z,13.70
2018-06-05T16:12:01.540Z,13.97
2018-06-05T16:14:31.931Z,14.13
2018-06-05T16:17:01.012Z,13.77
2018-06-05T16:19:29.999Z,14.07
2018-06-05T16:21:58.950Z,12.97
2018-06-05T16:24:27.917Z,13.77
2018-06-05T16:26:56.734Z,13.70
2018-06-05T16:29:25.554Z,14.00
2018-06-05T16:31:54.452Z,12.77
2018-06-05T16:34:23.971Z,12.57
2018-06-05T16:36:52.863Z,15.47
2018-06-05T16:39:21.740Z,14.40
2018-06-05T16:41:50.592Z,14.13
2018-06-05T16:44:19.400Z,12.90
2018-06-05T16:46:48.225Z,13.13
2018-06-05T16:49:17.149Z,13.70
2018-06-05T16:51:46.019Z,13.83
2018-06-05T16:54:14.879Z,13.83
2018-06-05T16:56:43.785Z,13.53
2018-06-05T16:59:12.655Z,13.47
2018-06-05T17:01:41.511Z,13.33
2018-06-05T17:04:10.274Z,14.23
2018-06-05T17:06:39.243Z,13.77
2018-06-05T17:09:08.408Z,12.17
2018-06-05T17:11:37.262Z,13.10
2018-06-05T17:14:06.100Z,13.67
2018-06-05T17:16:35.020Z,13.13
2018-06-05T17:19:03.940Z,12.37
2018-06-05T17:21:32.809Z,11.87
2018-06-05T17:24:01.681Z,11.73
2018-06-05T17:26:30.519Z,12.40
2018-06-05T17:28:58.941Z,11.50
2018-06-05T17:31:27.741Z,12.00
2018-06-05T17:33:56.574Z,11.40
2018-06-05T17:36:25.511Z,11.37
2018-06-05T17:38:54.317Z,12.07
2018-06-05T17:41:23.162Z,11.73
2018-06-05T17:43:52.034Z,11.30
2018-06-05T17:46:20.920Z,11.40
2018-06-05T17:48:49.740Z,12.23
2018-06-05T17:51:18.569Z,14.80
2018-06-05T17:53:47.426Z,11.13
2018-06-05T17:56:16.611Z,10.33
2018-06-05T17:58:45.512Z,11.60
2018-06-05T18:01:14.393Z,11.43
2018-06-05T18:03:43.229Z,12.30
2018-06-05T18:06:12.070Z,11.53
2018-06-05T18:08:40.924Z,12.00
2018-06-05T18:11:09.758Z,11.43
2018-06-05T18:13:38.601Z,12.17
2018-06-05T18:16:07.450Z,11.40
2018-06-05T18:18:36.279Z,11.93
2018-06-05T18:21:05.189Z,12.03
2018-06-05T18:23:33.970Z,12.57
2018-06-05T18:26:02.699Z,12.77
2018-06-05T18:28:31.520Z,12.60
2018-06-05T18:31:00.937Z,11.43
2018-06-05T18:33:29.807Z,12.47
2018-06-05T18:35:58.679Z,12.50
2018-06-05T18:38:27.531Z,11.47
2018-06-05T18:40:56.369Z,12.20
2018-06-05T18:43:25.304Z,11.73
2018-06-05T18:45:54.135Z,11.93
2018-06-05T18:48:23.020Z,11.13
2018-06-05T18:50:51.918Z,11.20
2018-06-05T18:53:20.776Z,11.47
2018-06-05T18:55:49.670Z,12.07
2018-06-05T18:58:18.521Z,10.80
2018-06-05T19:00:47.351Z,11.60
2018-06-05T19:03:16.147Z,11.20
2018-06-05T19:05:44.963Z,11.43
2018-06-05T19:08:13.796Z,11.97
2018-06-05T19:10:42.607Z,11.57
2018-06-05T19:13:11.414Z,11.80
2018-06-05T19:15:41.971Z,12.07
2018-06-05T19:18:10.846Z,11.53
2018-06-05T19:20:39.646Z,11.13
2018-06-05T19:23:08.473Z,11.80
2018-06-05T19:25:36.881Z,11.27
2018-06-05T19:28:05.847Z,11.53
2018-06-05T19:30:34.730Z,12.43
2018-06-05T19:33:03.605Z,11.43
2018-06-05T19:35:32.439Z,11.73
2018-06-05T19:38:01.261Z,11.90
2018-06-05T19:40:30.106Z,12.03
2018-06-05T19:42:58.941Z,12.23
2018-06-05T19:45:27.767Z,11.90
2018-06-05T19:47:56.636Z,12.17
2018-06-05T19:50:25.459Z,12.30
2018-06-05T19:52:54.317Z,12.63
2018-06-05T19:55:23.774Z,12.37
2018-06-05T19:57:52.593Z,13.13
2018-06-05T20:00:21.424Z,12.63
2018-06-05T20:02:50.271Z,13.27
2018-06-05T20:05:19.154Z,11.90
2018-06-05T20:07:47.966Z,12.47
2018-06-05T20:10:17.561Z,12.47
2018-06-05T20:12:46.614Z,12.20
2018-06-05T20:15:15.510Z,12.50
2018-06-05T20:17:44.379Z,12.57
2018-06-05T20:20:13.462Z,12.80
2018-06-05T20:22:42.346Z,12.80
2018-06-05T20:25:11.111Z,12.90
2018-06-05T20:27:39.906Z,12.97
2018-06-05T20:30:08.764Z,13.40
2018-06-05T20:32:37.606Z,13.10
2018-06-05T20:35:06.481Z,13.00
2018-06-05T20:37:35.334Z,13.57
2018-06-05T20:40:05.025Z,14.17
2018-06-05T20:42:33.893Z,14.03
2018-06-05T20:45:04.814Z,13.63
2018-06-05T20:47:33.635Z,13.37
2018-06-05T20:50:03.143Z,13.27
2018-06-05T20:52:32.059Z,13.87
2018-06-05T20:55:00.917Z,14.37
2018-06-05T20:57:29.722Z,13.63
2018-06-05T20:59:58.587Z,13.77
2018-06-05T21:02:27.429Z,14.63
2018-06-05T21:04:57.272Z,13.87
2018-06-05T21:07:26.142Z,13.77
2018-06-05T21:09:54.545Z,13.13
2018-06-05T21:12:23.374Z,13.50
2018-06-05T21:14:52.235Z,13.37
2018-06-05T21:17:21.250Z,13.97
2018-06-05T21:19:50.100Z,13.67
2018-06-05T21:22:18.976Z,13.77
2018-06-05T21:24:47.807Z,14.13
2018-06-05T21:27:17.197Z,13.27
2018-06-05T21:29:46.052Z,12.90
2018-06-05T21:32:14.858Z,13.00
2018-06-05T21:34:43.679Z,13.67
2018-06-05T21:37:12.562Z,12.83
2018-06-05T21:39:41.471Z,13.10
2018-06-05T21:42:10.275Z,13.17
2018-06-05T21:44:39.100Z,13.17
2018-06-05T21:47:08.012Z,13.03
2018-06-05T21:49:36.838Z,12.37
2018-06-05T21:52:06.048Z,12.93
2018-06-05T21:54:34.948Z,13.03
2018-06-05T21:57:03.796Z,12.27
2018-06-05T21:59:32.583Z,13.20
2018-06-05T22:02:01.372Z,13.03
2018-06-05T22:04:30.123Z,13.40
2018-06-05T22:06:58.965Z,12.93
2018-06-05T22:09:27.747Z,12.57
2018-06-05T22:11:56.581Z,12.67
2018-06-05T22:14:25.393Z,12.50
2018-06-05T22:16:54.174Z,12.27
2018-06-05T22:19:22.952Z,13.10
2018-06-05T22:21:51.799Z,12.63
2018-06-05T22:24:20.592Z,12.40
2018-06-05T22:26:49.392Z,12.87
2018-06-05T22:29:18.765Z,14.47
2018-06-05T22:31:47.566Z,13.57
2018-06-05T22:34:16.424Z,13.63
2018-06-05T22:36:45.578Z,14.00
2018-06-05T22:39:14.426Z,13.37
2018-06-05T22:41:43.362Z,13.23
2018-06-05T22:44:12.191Z,13.57
2018-06-05T22:46:40.991Z,14.47
2018-06-05T22:49:10.509Z,13.47
2018-06-05T22:51:38.942Z,14.53
2018-06-05T22:54:07.763Z,14.13
2018-06-05T22:56:36.585Z,13.93
2018-06-05T22:59:05.407Z,13.03
2018-06-05T23:01:34.235Z,13.07
2018-06-05T23:04:03.306Z,13.47
2018-06-05T23:06:32.104Z,12.93
2018-06-05T23:09:00.930Z,12.77
2018-06-05T23:11:29.782Z,13.23
2018-06-05T23:13:58.622Z,13.77
2018-06-05T23:16:27.450Z,14.10
2018-06-05T23:18:56.258Z,13.63
2018-06-05T23:21:25.057Z,13.00
2018-06-05T23:23:53.877Z,13.73
2018-06-05T23:26:22.723Z,13.60
2018-06-05T23:28:51.120Z,13.87
2018-06-05T23:31:19.977Z,13.53
2018-06-05T23:33:48.809Z,14.53
2018-06-05T23:36:17.625Z,15.07
2018-06-05T23:38:46.427Z,14.53
2018-06-05T23:41:15.239Z,14.33
2018-06-05T23:43:44.097Z,16.30
2018-06-05T23:46:12.899Z,17.10
2018-06-05T23:48:41.703Z,15.57
2018-06-05T23:51:10.531Z,15.67
2018-06-05T23:53:40.245Z,15.23
2018-06-05T23:56:09.034Z,17.23
2018-06-05T23:58:37.820Z,16.53
